Detalhes do Voo

Voltar

 DETALHES DO VÔO

Piloto: GLD1543 Pablo B. Aeronave: ATCCOM.ATC_NAME CESSNA. Distância: 5067NM
Origem: LEST Destino: LEZL Duração: 2.65
Validação: Rejeitado Tipo: Charter Matrícula: PT-GLD
ZFW: 23473 Block Fuel/Init FOB 7,723/3,279 Combustível em Voo 7,723
Passageiros: 180 Carga: 19600 Alternativo: LEVC
Hora da Decolagem: 1658 Velocidade de Cruzeiro: 0400 Nível de Voo: FL340
Regra Visual: IFR ICAO da Aeronave: B738 Unidade de Peso: Kg
Data: 06/01/2026 Observação: GOLD ACARS Rede: IVAO
Acidentou?: Não Comentários do Validador: Não atingiu o rating minimo de 70.0 Pontuação do Voo 0

 ROTA

ROTA FORNO N733 ZMR DCT PDT M871 NANDO T257 MABUX
REMARKS OPR/GOLD VIRTUAL AIRLINES PER/C RMK/FROM LEST RMK/PIC GLD1543

 PENALIDADES DO VOO

Para entender como cada item é pontuado, consulte as regras de avaliação.

Nenhuma penalidade registrada para este voo.

 ANÁLISE DO POUSO

Vento durante o pouso: 270º/1 kt Proa durante o pouso: 100
V/S do Pouso: -409 ft/min IAS do Pouso: 140 kt
Força G no pouso: 1.4048 G Bank no pouso: 0.23
Pitch no Pouso -1.46 Flaps no Pouso 100
Nav Lights ON Landing Lights OFF
Beacon Lights ON Strobe Lights OFF

 MAPA DO VOO

 PERFIL VERTICAL DO VOO

 EVENTOS PRINCIPAIS DO VOO

DATAEVENTOIASALTITUDE
2026-01-06 16:58:05 GOLD ACARS VERSION 3.3.6.700
2026-01-06 16:58:05 TAXI LIGHTS ON00
2026-01-06 16:58:05 BOARDING0370
2026-01-06 17:17:12 FLAP 12%0459
2026-01-06 17:17:28 FLAP 25%0459
2026-01-06 17:17:36 FLAP 37%0459
2026-01-06 17:22:36 STARTING ENGINE 20459
2026-01-06 17:24:07 STARTING ENGINE 10459
2026-01-06 17:25:48 STB LIGHTS ON0459
2026-01-06 17:25:55 STB LIGHTS OFF0459
2026-01-06 17:29:34 TAXI TO THE RWY3459
2026-01-06 17:37:48 TAXI SPEED ABOVE 25 KTS58461
2026-01-06 17:38:17 CLIMBING157463
2026-01-06 17:38:17 LIGHTS OFF BELOW 10000 ft157463
2026-01-06 17:38:24 GEAR UP167491
2026-01-06 17:38:24 TAXI LIGHTS OFF167491
2026-01-06 17:39:10 FLAP 25%1791015
2026-01-06 17:39:18 FLAP 12%1911049
2026-01-06 17:39:30 FLAP 0%2051093
2026-01-06 17:39:51 CRUISE2261190
2026-01-06 17:39:55 CLIMBING2331197
2026-01-06 17:42:48 IAS ABOVE 250 KNOTS BELOW 10000 ft2613174
2026-01-06 17:52:40 SIM PAUSED3008696
2026-01-06 17:52:41 SIM UNPAUSED3008699
2026-01-06 17:56:18 CRUISE27710061
2026-01-06 18:07:05 SIM PAUSED27610058
2026-01-06 18:07:06 SIM UNPAUSED27610058
2026-01-06 18:14:26 SIM PAUSED27710058
2026-01-06 18:14:27 SIM UNPAUSED27710058
2026-01-06 18:21:29 SIM PAUSED27610058
2026-01-06 18:21:30 SIM UNPAUSED27610058
2026-01-06 18:28:26 DESCEND27310050
2026-01-06 18:38:40 SIM PAUSED2783963
2026-01-06 18:38:40 SIM UNPAUSED2783963
2026-01-06 18:48:36 FLAP 12%1941845
2026-01-06 18:48:43 FLAP 25%1881830
2026-01-06 18:51:31 CLIMBING1761321
2026-01-06 18:51:36 CRUISE1741333
2026-01-06 18:51:51 DESCEND1821262
2026-01-06 18:51:54 FLAP 37%1811252
2026-01-06 18:52:06 FLAP 50%1781185
2026-01-06 18:52:29 FLAP 62%1691070
2026-01-06 18:53:20 TAXI LIGHTS ON159842
2026-01-06 18:53:21 GEAR DOWN158834
2026-01-06 18:54:44 FLAP 74%158455
2026-01-06 18:54:48 FLAP 87%155441
2026-01-06 18:54:52 FLAP 100%151430
2026-01-06 18:56:27 LANDED - VS: -409 ft/min13955
2026-01-06 18:56:42 TAXI TO THE GATE2648
2026-01-06 18:59:14 TAXI LIGHTS OFF544
2026-01-06 18:59:14 TAXING WITH TAXI LIGHTS OFF544
2026-01-06 18:59:15 TAXI LIGHTS ON444
2026-01-06 19:01:20 AT THE GATE046
2026-01-06 19:26:22 STOPPING ENGINE 100
2026-01-06 19:26:23 STOPPING ENGINE 200
2026-01-06 19:26:23 STB LIGHTS ON00
2026-01-06 19:26:23 GEAR UP00
2026-01-06 19:26:24 FLAP 0%00
2026-01-06 19:26:37 FLAP 33%0234
2026-01-06 19:27:06 STARTING ENGINE 1034
2026-01-06 19:27:06 STARTING ENGINE 2034
2026-01-06 19:27:07 FLAP 0%034
2026-01-06 19:27:08 NAV LIGHTS OFF034
2026-01-06 19:27:15 FLAP 33%034
2026-01-06 19:27:16 TAXI LIGHTS OFF034
2026-01-06 19:27:18 NAV LIGHTS ON134
2026-01-06 19:27:42 LANDING WITH INCORRECT QNH - SET:1013 LOCAL: 1021134
2026-01-06 19:28:40 TAXI LIGHTS ON134
2026-01-06 19:28:40 STOPPING ENGINE 1034
2026-01-06 19:28:41 STOPPING ENGINE 2034
2026-01-06 19:29:09 STARTING ENGINE 1034
2026-01-06 19:29:10 STARTING ENGINE 2034
2026-01-06 19:29:10 LND LIGHTS OFF034
2026-01-06 19:29:10 FLAP 0%034
2026-01-06 19:29:14 FLAP 33%034
2026-01-06 19:29:15 TAXI LIGHTS OFF034
2026-01-06 19:29:17 NAV LIGHTS ON134
2026-01-06 19:36:50 LANDED NOT IN THE PLANNED AIRPORT [LEAL] - [lat: 37,4179949910005] - [long: -5,87429343912731]124
2026-01-06 19:36:51 FLIGHT FINISHED124

 DADOS DO ACARS

DATA IAS GS ALTITUDE COMBUSTÍVEL USADO OAT FASE DO VOO
2026-01-06 17:00:06 1 0 370 2 15 BOARDING
2026-01-06 17:01:06 1 0 370 3 15 BOARDING
2026-01-06 17:02:07 1 0 370 4 15 BOARDING
2026-01-06 17:03:08 1 0 370 6 15 BOARDING
2026-01-06 17:04:08 1 0 370 7 15 BOARDING
2026-01-06 17:05:09 1 0 370 8 15 BOARDING
2026-01-06 17:06:09 1 0 370 10 15 BOARDING
2026-01-06 17:07:10 1 0 370 11 15 BOARDING
2026-01-06 17:08:10 1 0 370 12 15 BOARDING
2026-01-06 17:09:11 1 0 370 14 15 BOARDING
2026-01-06 17:10:11 1 0 370 15 15 BOARDING
2026-01-06 17:11:12 1 0 370 16 15 BOARDING
2026-01-06 17:12:13 1 0 370 17 15 BOARDING
2026-01-06 17:13:13 1 0 459 19 15 BOARDING
2026-01-06 17:14:14 1 0 459 20 15 BOARDING
2026-01-06 17:15:14 1 0 459 21 15 BOARDING
2026-01-06 17:16:15 1 0 459 23 15 BOARDING
2026-01-06 17:17:15 1 0 459 24 15 BOARDING
2026-01-06 17:18:16 1 0 459 25 15 BOARDING
2026-01-06 17:19:16 1 0 459 27 15 BOARDING
2026-01-06 17:20:17 1 0 459 28 15 BOARDING
2026-01-06 17:21:18 1 0 459 29 15 BOARDING
2026-01-06 17:22:18 1 0 459 30 15 BOARDING
2026-01-06 17:23:19 0 0 459 36 15 BOARDING
2026-01-06 17:24:19 0 0 459 45 15 BOARDING
2026-01-06 17:25:20 0 0 459 56 15 BOARDING
2026-01-06 17:26:20 0 0 459 68 15 BOARDING
2026-01-06 17:27:21 0 0 459 78 15 BOARDING
2026-01-06 17:28:21 0 0 459 89 15 BOARDING
2026-01-06 17:29:22 0 0 459 101 15 BOARDING
2026-01-06 17:30:23 7 7 459 119 15 BOARDING
2026-01-06 17:31:23 7 8 460 132 15 TAXI TO THE RWY
2026-01-06 17:32:24 9 10 460 145 15 TAXI TO THE RWY
2026-01-06 17:33:24 8 9 461 157 15 TAXI TO THE RWY
2026-01-06 17:34:25 7 8 462 169 15 TAXI TO THE RWY
2026-01-06 17:35:26 0 0 462 181 15 TAXI TO THE RWY
2026-01-06 17:36:26 0 0 462 193 15 TAXI TO THE RWY
2026-01-06 17:37:27 0 0 462 207 15 TAXI TO THE RWY
2026-01-06 17:38:27 169 173 516 339 14 TAXI TO THE RWY
2026-01-06 17:39:28 203 213 1085 484 10 CLIMBING
2026-01-06 17:40:29 250 269 1500 594 7 CLIMBING
2026-01-06 17:41:29 250 278 2290 701 2 CLIMBING
2026-01-06 17:42:30 250 291 3007 808 -1 CLIMBING
2026-01-06 17:43:31 301 355 3385 913 -4 CLIMBING
2026-01-06 17:44:31 301 369 4175 1018 -9 CLIMBING
2026-01-06 17:45:32 301 383 4964 1118 -14 CLIMBING
2026-01-06 17:46:32 301 398 5685 1213 -17 CLIMBING
2026-01-06 17:47:33 301 410 6350 1303 -23 CLIMBING
2026-01-06 17:48:34 301 422 6939 1389 -27 CLIMBING
2026-01-06 17:49:34 300 433 7464 1469 -29 CLIMBING
2026-01-06 17:50:35 299 443 7933 1545 -32 CLIMBING
2026-01-06 17:51:35 301 453 8337 1618 -36 CLIMBING
2026-01-06 17:52:36 302 464 8666 1688 -35 CLIMBING
2026-01-06 17:53:36 301 474 8952 1755 -34 CLIMBING
2026-01-06 17:54:37 291 468 9384 1819 -39 CLIMBING
2026-01-06 17:55:38 283 465 9798 1881 -42 CLIMBING
2026-01-06 17:56:38 281 469 10059 1938 -44 CLIMBING
2026-01-06 17:57:39 276 462 10059 1975 -44 CRUISE
2026-01-06 17:58:40 279 465 10060 2019 -45 CRUISE
2026-01-06 17:59:40 280 466 10059 2061 -45 CRUISE
2026-01-06 18:00:41 279 465 10058 2102 -45 CRUISE
2026-01-06 18:01:41 278 462 10058 2142 -45 CRUISE
2026-01-06 18:02:42 276 458 10058 2182 -46 CRUISE
2026-01-06 18:03:42 274 457 10059 2222 -45 CRUISE
2026-01-06 18:04:43 274 458 10058 2263 -45 CRUISE
2026-01-06 18:05:44 276 459 10058 2305 -45 CRUISE
2026-01-06 18:06:44 276 460 10058 2347 -45 CRUISE
2026-01-06 18:07:45 277 461 10058 2388 -45 CRUISE
2026-01-06 18:08:45 277 462 10058 2430 -44 CRUISE
2026-01-06 18:09:46 277 462 10058 2472 -44 CRUISE
2026-01-06 18:10:46 276 462 10058 2513 -43 CRUISE
2026-01-06 18:11:47 276 462 10058 2554 -44 CRUISE
2026-01-06 18:12:48 276 462 10059 2595 -42 CRUISE
2026-01-06 18:13:48 277 462 10061 2637 -44 CRUISE
2026-01-06 18:14:49 277 462 10058 2678 -44 CRUISE
2026-01-06 18:15:49 277 461 10058 2719 -45 CRUISE
2026-01-06 18:16:50 276 459 10057 2759 -45 CRUISE
2026-01-06 18:17:50 276 458 10059 2799 -46 CRUISE
2026-01-06 18:18:52 275 458 10058 2840 -45 CRUISE
2026-01-06 18:19:52 275 457 10060 2881 -46 CRUISE
2026-01-06 18:20:53 276 459 10059 2922 -46 CRUISE
2026-01-06 18:21:53 276 460 10058 2964 -45 CRUISE
2026-01-06 18:22:54 276 461 10059 3005 -44 CRUISE
2026-01-06 18:23:54 276 462 10058 3047 -43 CRUISE
2026-01-06 18:24:55 277 463 10058 3089 -43 CRUISE
2026-01-06 18:25:55 277 463 10059 3130 -44 CRUISE
2026-01-06 18:26:56 276 461 10062 3171 -44 CRUISE
2026-01-06 18:27:56 275 461 10058 3212 -42 CRUISE
2026-01-06 18:28:56 276 452 9759 3237 -41 CRUISE
2026-01-06 18:29:57 304 468 8716 3251 -34 DESCEND
2026-01-06 18:30:57 323 470 7694 3266 -29 DESCEND
2026-01-06 18:31:58 275 400 7411 3281 -26 DESCEND
2026-01-06 18:32:58 277 389 6777 3296 -23 DESCEND
2026-01-06 18:33:59 278 379 6246 3310 -20 DESCEND
2026-01-06 18:35:00 277 368 5744 3325 -17 DESCEND
2026-01-06 18:36:00 277 357 5202 3340 -14 DESCEND
2026-01-06 18:37:01 279 347 4521 3355 -11 DESCEND
2026-01-06 18:38:01 281 343 3995 3378 -7 DESCEND
2026-01-06 18:39:03 275 334 3935 3422 -5 DESCEND
2026-01-06 18:40:03 261 313 3520 3437 -1 DESCEND
2026-01-06 18:41:04 249 292 3121 3452 0 DESCEND
2026-01-06 18:42:04 249 284 2630 3466 1 DESCEND
2026-01-06 18:43:04 248 277 2153 3481 4 DESCEND
2026-01-06 18:44:05 219 245 2126 3508 4 DESCEND
2026-01-06 18:45:05 235 262 2140 3564 4 DESCEND
2026-01-06 18:46:06 218 244 2130 3596 4 DESCEND
2026-01-06 18:47:06 223 246 2038 3621 4 DESCEND
2026-01-06 18:48:06 203 223 1901 3635 6 DESCEND
2026-01-06 18:49:07 178 196 1800 3658 8 DESCEND
2026-01-06 18:50:07 194 214 1707 3714 8 DESCEND
2026-01-06 18:51:08 187 203 1399 3735 8 DESCEND
2026-01-06 18:52:08 178 191 1179 3761 9 DESCEND
2026-01-06 18:53:10 159 169 886 3779 10 DESCEND
2026-01-06 18:54:10 161 168 613 3817 12 DESCEND
2026-01-06 18:55:11 145 149 357 3852 13 DESCEND
2026-01-06 18:56:11 144 146 107 3911 14 DESCEND
2026-01-06 18:57:12 23 24 45 3932 14 DESCEND
2026-01-06 18:58:12 0 1 44 3942 14 TAXI TO THE GATE
2026-01-06 18:59:13 5 4 44 3962 14 TAXI TO THE GATE
2026-01-06 19:00:13 5 6 47 3994 15 TAXI TO THE GATE
2026-01-06 19:01:14 8 8 46 4028 15 TAXI TO THE GATE
2026-01-06 19:02:14 0 0 46 4062 15 TAXI TO THE GATE
2026-01-06 19:03:15 0 0 46 4098 15 AT THE GATE
2026-01-06 19:04:15 0 0 46 4132 15 AT THE GATE
2026-01-06 19:05:17 0 0 46 4169 15 AT THE GATE
2026-01-06 19:06:17 0 0 46 4203 15 AT THE GATE
2026-01-06 19:07:18 0 0 46 4238 15 AT THE GATE
2026-01-06 19:08:18 0 0 46 4273 15 AT THE GATE
2026-01-06 19:09:20 0 0 46 4308 15 AT THE GATE
2026-01-06 19:10:20 0 0 46 4343 15 AT THE GATE
2026-01-06 19:11:21 0 0 46 4378 15 AT THE GATE
2026-01-06 19:12:21 0 0 46 4413 15 AT THE GATE
2026-01-06 19:13:22 0 0 46 4448 15 AT THE GATE
2026-01-06 19:14:22 0 0 46 4483 15 AT THE GATE
2026-01-06 19:15:23 0 0 46 4518 15 AT THE GATE
2026-01-06 19:16:23 0 0 46 4553 15 AT THE GATE
2026-01-06 19:17:24 0 0 46 4589 15 AT THE GATE
2026-01-06 19:18:24 0 0 46 4623 15 AT THE GATE
2026-01-06 19:19:25 0 0 46 4658 15 AT THE GATE
2026-01-06 19:20:25 0 0 46 4693 15 AT THE GATE
2026-01-06 19:21:26 0 0 46 4728 15 AT THE GATE
2026-01-06 19:22:26 0 0 46 4763 15 AT THE GATE
2026-01-06 19:23:28 0 0 46 4798 15 AT THE GATE
2026-01-06 19:24:28 0 0 46 4833 15 AT THE GATE
2026-01-06 19:25:29 0 0 46 4868 15 AT THE GATE
2026-01-06 19:26:29 0 0 0 1104 -56 AT THE GATE
2026-01-06 19:27:30 1 0 34 4415 15 AT THE GATE
2026-01-06 19:28:30 1 0 34 4413 9 AT THE GATE
2026-01-06 19:29:31 1 0 34 4416 14 AT THE GATE
2026-01-06 19:30:31 1 0 34 4424 14 AT THE GATE
2026-01-06 19:31:32 1 0 34 4432 14 AT THE GATE
2026-01-06 19:32:32 1 0 24 4440 14 AT THE GATE
2026-01-06 19:33:33 1 0 24 4443 14 AT THE GATE
2026-01-06 19:34:33 1 0 24 4443 14 AT THE GATE
2026-01-06 19:35:33 1 0 24 4443 14 AT THE GATE
2026-01-06 19:36:34 1 0 24 4443 14 AT THE GATE